Архив погоды в Килиере

Метеограмма Килиер
Среда, 15 Августа
Время местн. Темп Ветер Видим Явления Облачность нижн/средн/верх Атм. давл. Влжн Точка росы ВНГО R Сост. почвы Tg s
Напр Скр Прв ур.ст ур.м изм
03:00 +5.9° штиль 0 - 50 км - переменная облачность 740 763 +0.4 100% +5.9° более 2.5 км - - - -
00:00 +10.1° штиль 0 - 50 км - переменная облачность 739 762 +0.5 100% +10.1° более 2.5 км - - - -
Вторник, 14 Августа
Время местн. Темп Ветер Видим Явления Облачность нижн/средн/верх Атм. давл. Влжн Точка росы ВНГО R Сост. почвы Tg s
Напр Скр Прв ур.ст ур.м изм
21:00 +18.7° В 1 - 50 км - облачно 739 761 0 74% +14° - 0 - - -
18:00 +25.2° Ю 5 - 50 км - облачно 737 763 -0.2 43% +11.7° более 2.5 км - - - -
15:00 +24.9° Ю 5 - 50 км - переменная облачность 739 760 -0.5 43% +11.5° более 2.5 км - - - -
12:00 +23.1° В 5 - 50 км - ясно 740 761 +0.7 48% +11.6° более 2.5 км - - - -
09:00 +18.6° Ю 3 - 50 км - переменная облачность 739 761 +0.4 71% +13.3° более 2.5 км 0 Сухая (без трещин) - -
06:00 +6.1° В 1 - 50 км - облачно 738 761 +0.3 100% +6.1° более 2.5 км - - - -
03:00 +9.2° штиль 0 - более 50 км - ясно 738 761 +0.9 100% +9.2° более 2.5 км - - - -
00:00 +12.5° штиль 0 - 50 км - переменная облачность 737 759 +0.8 100% +12.5° более 2.5 км - - - -
Понедельник, 13 Августа
Время местн. Темп Ветер Видим Явления Облачность нижн/средн/верх Атм. давл. Влжн Точка росы ВНГО R Сост. почвы Tg s
Напр Скр Прв ур.ст ур.м изм
21:00 +20.1° В 1 - более 50 км - облачно с прояснениями 737 758 +0.8 86% +17.7° более 2.5 км 0 - - -
18:00 +25.1° Ю-В 3 - 50 км - преимущественно облачно 736 757 -0.1 56% +15.6° 1 км - - - -
15:00 +24.6° Ю-В 5 - 50 км - облачно с прояснениями 736 757 -0.1 58% +15.7° 1 км - - - -
12:00 +23.1° Ю 3 - 50 км - переменная облачность 736 757 0 69% +17.1° 1 км - - - -
09:00 +13.8° штиль 0 - 50 км - переменная облачность 736 758 +0.5 100% +13.8° 1.5 км 0 Влажная (без луж) - -
06:00 +6.5° штиль 0 - 2 км дымка переменная облачность 735 758 +0.2 100% +6.5° 1.5 км - - - -
03:00 +6.9° штиль 0 - 50 км - переменная облачность 735 758 +0.6 100% +6.9° 1.5 км - - - -
00:00 +12.8° штиль 0 - 50 км - переменная облачность 735 757 +0.8 100% +12.8° 1.5 км - - - -
Воскресенье, 12 Августа
Время местн. Темп Ветер Видим Явления Облачность нижн/средн/верх Атм. давл. Влжн Точка росы ВНГО R Сост. почвы Tg s
Напр Скр Прв ур.ст ур.м изм
21:00 +17.8° С 1 - 50 км - облачно 734 756 +0.7 95% +17° 1.5 км 0 - - -
18:00 +19.8° С-В 4 - 50 км - облачно 733 755 +0.7 75% +15.2° 1 км - - - -
15:00 +19.7° С-В 3 - 50 км - облачно 733 754 +0.2 79% +16° 1 км - - - -
12:00 +18.4° С 3 - более 50 км - облачно 732 754 +0.4 89% +16.6° 1 км - - - -
09:00 +15.4° Ю 1 - 50 км - облачно 732 754 +0.5 100% +15.4° 1 км 2 Влажная (без луж) - -
06:00 +11.9° Ю 2 - 50 км - облачно 732 754 +0.3 100% +11.9° 1 км - - - -
03:00 +11.9° Ю 3 - 50 км небо без изменений {ливневые осадки, дождь} облачно 731 753 -1 100% +11.9° 1 км - - - -
00:00 +13.1° Ю 3 - 10 км слабый ливневый дождь облачно 732 754 -0.8 100% +13.1° 1 км - - - -